< < Back
Terminal Aerodrome Forecast


Current Version              Previous Versions:   1  2  3  4  5  6  7  8  9  

Terminal Aerodrome Forecast

541
FTUS42 KGSP 090107 AAA
TAFAND
TAF AMD
KAND 090107Z 0901/0924 28011G20KT P6SM BKN100
     FM090300 27011KT P6SM SCT090
     FM091600 26014G22KT P6SM BKN045=



Latest METAR

644
SAUS70 KWBC 091400 RRB
MTRAND
METAR KAND 091356Z AUTO 26011KT 10SM FEW060 OVC100 02/M06 A2979 RMK AO2
SLP090 T00171061


USA.gov is the U.S. government's official web portal to all federal, state and local government web resources and services.